Pagrindinis puslapis
METAR-TAF:

METAR-TAF

Oro uostai :

Sakramentas, Kalifornija, Jungtinės Amerikos Valstijos

platuma: 38-40-04N, ilguma: 121-24-02W, Aukštis: 23 m

Dabartinis oras

Ataskaita buvo paskelbta 14 minutes, ne 06:55 UTC
Vėjas 9 kt iš Pietryčių su gūsio iki 14 kt
Temperatūra 15°C
Drėgmė 77%
Slėgis 1013 hPa
Matomumas: 16.1 km
Giedras dangus

METAR: KMCC 270655Z AUTO 13009G14KT 10SM CLR 15/11 A2990 RMK AO2

Laikas: 00:09 (07:09 UTC)

Prognozė

Ataskaita buvo paskelbta 1 valandą ir 49 minutes, ne 05:20 UTC
Prognozė galioja nuo 27 metu 06 UTC su 28 metu 06 UTC
Vėjas 9 kt iš Pietų
Matomumas: 10 km
Išsisklaidę debesys ne aukštis 20000 ft

TAF: KMCC 270520Z 2706/2806 17009KT P6SM SCT200

Orai ataskaitas ir orų prognozės (METAR, TAF).

turimą stotys yra geltonos ir raudonos taškus žemėlapyje.

Perkelti pele per norėdami pamatyti stoties vardą.

Tada spustelėkite, norėdami matyti oro stebėjimo ir prognozės.

Norėdami pakeisti žemėlapį: spustelėkite ant žalios mygtukų su juodo kryžiaus žemyn,; žalią mygtuką su brūkšneliu, jei norite nutolinti; arba žalių rodyklių gretimoms žemėlapius.


METAR-TAF: